Aeroporto :
LOGIN :

Iscrizione | Disclaimer

   EN    FR    IT 

 










Sommario :    VFR   VFR Marginale   IFR   IFR Intensivo   IFR Molto Intensivo
Visibilità : 
Base nubi : 
>= 8 km
>= 3000ft
5 / 8 km
1000 / 3000 ft
1500m / 5 km
500 / 1000 ft
800 / 1500m
200 / 500 ft
< 800m
< 200 ft
Simboli :   Temporali  Nebbia  Neve Forte  Precipitazioni Forti  Vento > 20 kt
SIGMETs :   Varie  Temporali  Ghiacco  Turbolenza  Onda orograficha  Ceneri Vulcaniche







- Altitudine del aeroporto : 72 ft
- Codice IATA : UDE


EHVK - Volkel Airbase

ULTIMO METAR :
  • 170525Z AUTO VRB01KT 9999 NCD 16/14 Q1021 BLU

METARs OBSOLETI :
  • 170455Z AUTO 05001KT 7000 BR NCD 13/13 Q1021 WHT
  • 170438Z AUTO 06001KT 5000 BR NCD 13/13 Q1021 WHT
  • 170425Z AUTO 03001KT 6000 BR NCD 12/12 Q1021 WHT
  • 170414Z AUTO 06001KT 6000 BR NCD 12/12 Q1021 WHT
  • 170408Z AUTO 07001KT 2700 BR SCT360 11/11 Q1021 YLO
  • 170355Z AUTO 07002KT 0500 FG OVC360 11/11 Q1021 RED
  • 170343Z AUTO 06002KT 1100 BR FEW360 11/11 Q1021 AMB
  • 170347Z AUTO 06002KT 0500 FG SCT360 11/11 Q1021 RED
  • 170331Z AUTO 06002KT 2000 BR NCD 11/11 Q1021 YLO
  • 170311Z AUTO 17001KT 6000 BR NCD 11/11 Q1021 WHT
  • 170307Z AUTO 20001KT 9999 NCD 11/11 Q1021 BLU
  • 170256Z AUTO 00000KT 6000 BR NCD 11/11 Q1021 WHT
  • 170239Z AUTO 00000KT 9999 NCD 11/11 Q1021 BLU
  • 170226Z AUTO 00000KT 5000 BR NCD 12/12 Q1021 WHT
  • 170225Z AUTO 00000KT 9999 NCD 12/12 Q1021 BLU

TAF TAF EHVK
Valido dal 17 a 05 ore il 17 a 17 ore UTC


170421Z 1705/1717 16004KT CAVOK
BECMG 1715/1717 VRB02KT
Nessun NOTAM noto per questo aeroporto.



MetMap, La meteo Aeronautica in un colpo d'occhio ! - Copyright ORBIFLY Dicembre 2007 - Disclaimer

ORBIFLY MET'MAP TEAM :

Programmazione e sviluppo : Alexandra Zaïnal
Concezione e sviluppo : Baudouin d'Aumeries
Co-Programmazione e sviluppo : Marc-Olivier Méhu
Supporto tecnico e logistico : Manuel Goepfert
Aiuto per la traduzione : Arnaldo La Scala

Contatto : metmap@orbifly.com




FONTI E CREDITI :

   NOAA